Terminal Aerodrome Forecast
Issued by NWS

Home | Current Version | Previous Version | Text Only | Print | Product List | Glossary On
Versions: 1 2 3 4 5 6 7 8 9 10 11 12 13 14 15 16 17 18 19 20 21 22 23 24 25 26 27 28 29 30 31 32 33 34 35
000
FTUS45 KLKN 281457 AAB
TAFELY
TAF AMD
KELY 281457Z 2815/0112 VRB06KT P6SM VCSH OVC040
      TEMPO 2815/2817 OVC004
     FM281800 01005KT 2SM -SN OVC009
     FM010400 14007KT P6SM -SHSN SCT012 OVC025=

USA.gov is the U.S. government's official web portal to all federal, state and local government web resources and services.